createdAt,value
2022-10-24T00:00:51.673Z,95141.72
2022-10-24T00:01:53.823Z,81012.69
2022-10-24T00:02:56.059Z,78674.28
2022-10-24T00:03:58.946Z,83365.53
2022-10-24T00:05:01.775Z,78678.03
2022-10-24T00:06:06.900Z,76009.16
2022-10-24T00:07:09.449Z,83720.56
2022-10-24T00:08:12.038Z,77660.69
2022-10-24T00:09:14.300Z,79353.66
2022-10-24T00:10:17.675Z,77012.59
2022-10-24T00:11:25.503Z,78709.31
2022-10-24T00:12:27.729Z,82347.47
2022-10-24T00:13:29.949Z,78328.47
2022-10-24T00:14:33.588Z,83725.91
2022-10-24T00:15:35.768Z,84368.03
2022-10-24T00:16:38.094Z,85049.75
2022-10-24T00:17:40.517Z,91771.69
2022-10-24T00:18:43.519Z,92427.81
2022-10-24T00:19:45.673Z,83025.25
2022-10-24T00:20:47.937Z,82355.38
2022-10-24T00:21:50.162Z,88727.25
2022-10-24T00:22:52.380Z,87041.97
2022-10-24T00:23:54.607Z,81345.56
2022-10-24T00:24:56.827Z,86043.81
2022-10-24T00:26:02.045Z,85355.72
2022-10-24T00:27:04.691Z,84032.28
2022-10-24T00:28:07.016Z,87732.91
2022-10-24T00:29:09.620Z,92095.69
2022-10-24T00:30:12.395Z,84372.06
2022-10-24T00:31:17.082Z,80695.28
2022-10-24T00:32:19.352Z,74959.53
2022-10-24T00:33:21.970Z,73971.94
2022-10-24T00:34:24.144Z,75309.25
2022-10-24T00:35:26.531Z,75979.59
2022-10-24T00:36:29.231Z,79346.09
2022-10-24T00:37:31.657Z,80343.81
2022-10-24T00:38:33.916Z,82702.13
2022-10-24T00:39:36.318Z,85049.75
2022-10-24T00:40:38.740Z,85384.97
2022-10-24T00:41:42.937Z,76676.25
2022-10-24T00:42:45.447Z,76651.31
2022-10-24T00:43:48.000Z,75004.78
2022-10-24T00:44:53.393Z,67990.75
2022-10-24T00:45:58.676Z,72336.66
2022-10-24T00:47:20.695Z,73313.63
2022-10-24T00:48:28.206Z,73356.66
2022-10-24T00:50:01.001Z,74698.91
2022-10-24T00:51:08.198Z,80400.13
2022-10-24T00:52:13.271Z,82400.63
2022-10-24T00:53:16.526Z,78378.31
2022-10-24T00:54:19.263Z,73648.34
2022-10-24T00:55:21.766Z,76022.44
2022-10-24T00:56:27.869Z,77032.19
2022-10-24T00:57:35.525Z,69007.44
2022-10-24T00:58:39.037Z,63648.13
2022-10-24T00:59:44.943Z,67000.16
2022-10-24T01:00:47.166Z,64956.19
2022-10-24T01:01:49.357Z,68993.25
2022-10-24T01:02:52.074Z,78712.44
2022-10-24T01:03:54.611Z,86093.22
2022-10-24T01:04:57.141Z,77678.59
2022-10-24T01:06:08.221Z,72026.47
2022-10-24T01:07:47.801Z,84108.00
2022-10-24T01:08:59.006Z,89444.63
2022-10-24T01:10:13.196Z,88811.59
2022-10-24T01:11:39.723Z,86127.56
2022-10-24T01:12:48.207Z,85458.53
2022-10-24T01:14:11.991Z,93186.63
2022-10-24T01:15:20.538Z,79666.81
2022-10-24T01:16:45.592Z,77368.03
2022-10-24T01:18:22.552Z,83780.63
2022-10-24T01:19:43.445Z,90093.03
2022-10-24T01:20:53.376Z,97207.19
2022-10-24T01:22:16.137Z,96217.19
2022-10-24T01:23:27.626Z,89141.00
2022-10-24T01:25:10.353Z,93495.16
2022-10-24T01:26:46.347Z,87102.47
2022-10-24T01:28:07.704Z,93856.00
2022-10-24T01:29:47.872Z,94200.56
2022-10-24T01:31:02.332Z,87112.19
2022-10-24T01:32:41.135Z,92474.41
2022-10-24T01:33:54.921Z,76022.44
2022-10-24T01:35:02.875Z,71007.00
2022-10-24T01:36:17.862Z,74701.25
2022-10-24T01:37:26.762Z,80395.63
2022-10-24T01:38:38.656Z,83390.75
2022-10-24T01:39:45.890Z,73002.69
2022-10-24T01:40:48.633Z,79685.19
2022-10-24T01:41:53.587Z,81061.72
2022-10-24T01:43:01.256Z,85100.66
2022-10-24T01:44:09.714Z,81067.56
2022-10-24T01:45:15.625Z,86737.84
2022-10-24T01:46:29.111Z,64984.41
2022-10-24T01:47:38.598Z,73030.47
2022-10-24T01:48:46.755Z,78392.66
2022-10-24T01:49:54.299Z,81381.81
2022-10-24T01:50:59.937Z,75006.56
2022-10-24T01:52:07.603Z,70665.13
2022-10-24T01:53:11.528Z,79018.94
2022-10-24T01:54:17.416Z,80718.41
2022-10-24T01:55:19.788Z,87074.63
2022-10-24T01:56:25.294Z,88459.59
2022-10-24T01:57:33.676Z,88443.34
2022-10-24T01:58:36.036Z,82354.06
2022-10-24T01:59:42.778Z,80692.69
2022-10-24T02:00:48.399Z,85082.31
2022-10-24T02:01:52.119Z,87085.75
2022-10-24T02:03:19.056Z,97898.97
2022-10-24T02:04:23.917Z,101585.13
2022-10-24T02:05:31.881Z,96844.41
2022-10-24T02:06:37.926Z,94169.66
2022-10-24T02:07:43.145Z,90120.38
2022-10-24T02:08:51.296Z,94159.13
2022-10-24T02:10:00.786Z,97873.91
2022-10-24T02:11:06.354Z,93816.25
2022-10-24T02:12:12.105Z,87420.53
2022-10-24T02:13:31.186Z,86448.00
2022-10-24T02:14:36.788Z,86423.16
2022-10-24T02:15:44.894Z,87784.75
2022-10-24T02:16:47.518Z,96150.97
2022-10-24T02:17:50.123Z,94136.50
2022-10-24T02:18:56.579Z,98556.41
2022-10-24T02:20:00.384Z,104948.03
2022-10-24T02:21:05.249Z,93504.88
2022-10-24T02:22:31.562Z,97902.09
2022-10-24T02:23:43.591Z,92483.28
2022-10-24T02:24:52.428Z,95832.41
2022-10-24T02:25:58.919Z,87767.91
2022-10-24T02:27:12.611Z,97900.53
2022-10-24T02:28:19.521Z,103613.22
2022-10-24T02:29:44.467Z,97532.72
2022-10-24T02:30:53.945Z,97196.28
2022-10-24T02:31:58.679Z,100902.59
2022-10-24T02:33:01.725Z,97142.59
2022-10-24T02:34:07.398Z,99226.44
2022-10-24T02:35:12.187Z,100566.72
2022-10-24T02:36:17.663Z,105976.41
2022-10-24T02:37:20.859Z,112022.13
2022-10-24T02:38:28.940Z,106989.91
2022-10-24T02:39:33.455Z,96491.81
2022-10-24T02:40:36.642Z,89743.06
2022-10-24T02:41:42.522Z,90128.34
2022-10-24T02:42:47.920Z,95490.81
2022-10-24T02:43:52.228Z,89086.19
2022-10-24T02:44:56.154Z,90783.25
2022-10-24T02:45:59.179Z,95820.13
2022-10-24T02:47:05.332Z,91122.69
2022-10-24T02:48:11.476Z,85726.38
2022-10-24T02:49:13.857Z,88389.69
2022-10-24T02:50:16.246Z,87399.59
2022-10-24T02:51:21.290Z,91795.88
2022-10-24T02:52:24.096Z,99183.47
2022-10-24T02:53:26.480Z,93109.88
2022-10-24T02:54:28.624Z,93777.97
2022-10-24T02:55:31.006Z,97131.69
2022-10-24T02:56:34.272Z,92443.31
2022-10-24T02:57:36.405Z,95793.31
2022-10-24T02:58:38.531Z,90044.09
2022-10-24T02:59:40.783Z,79322.09
2022-10-24T03:00:43.283Z,77659.47
2022-10-24T03:01:45.491Z,76645.19
2022-10-24T03:02:47.823Z,78992.56
2022-10-24T03:03:50.505Z,82016.53
2022-10-24T03:04:52.631Z,85679.88
2022-10-24T03:05:54.813Z,69930.69
2022-10-24T03:06:57.052Z,67597.13
2022-10-24T03:07:59.173Z,70939.56
2022-10-24T03:09:01.642Z,66933.47
2022-10-24T03:10:03.957Z,67599.25
2022-10-24T03:11:06.190Z,68272.69
2022-10-24T03:12:08.297Z,73602.22
2022-10-24T03:13:10.523Z,66594.81
2022-10-24T03:14:12.773Z,67598.19
2022-10-24T03:15:15.958Z,73275.28
2022-10-24T03:16:18.150Z,73270.03
2022-10-24T03:17:21.822Z,63896.75
2022-10-24T03:18:23.940Z,58248.16
2022-10-24T03:19:26.285Z,63252.88
2022-10-24T03:20:28.431Z,66251.56
2022-10-24T03:21:30.594Z,67592.81
2022-10-24T03:22:32.855Z,70922.69
2022-10-24T03:23:34.991Z,65914.66
2022-10-24T03:24:43.892Z,65577.34
2022-10-24T03:25:46.722Z,71258.06
2022-10-24T03:26:52.110Z,69225.69
2022-10-24T03:27:54.226Z,68577.97
2022-10-24T03:28:56.436Z,69572.81
2022-10-24T03:29:58.536Z,68239.16
2022-10-24T03:31:00.652Z,59541.88
2022-10-24T03:32:03.359Z,56907.63
2022-10-24T03:33:05.526Z,61898.66
2022-10-24T03:34:07.786Z,66902.78
2022-10-24T03:35:13.272Z,63215.50
2022-10-24T03:36:16.643Z,55892.78
2022-10-24T03:37:18.829Z,58559.97
2022-10-24T03:38:21.983Z,57896.56
2022-10-24T03:39:24.306Z,53561.38
2022-10-24T03:40:26.421Z,54232.03
2022-10-24T03:41:28.527Z,54226.09
2022-10-24T03:42:30.701Z,51234.00
2022-10-24T03:43:32.845Z,51574.56
2022-10-24T03:44:35.010Z,55563.28
2022-10-24T03:45:37.595Z,52555.13
2022-10-24T03:46:39.750Z,49913.00
2022-10-24T03:47:41.844Z,53899.22
2022-10-24T03:48:43.949Z,52562.53
2022-10-24T03:49:46.101Z,46588.31
2022-10-24T03:50:48.205Z,50237.56
2022-10-24T03:51:50.416Z,49562.88
2022-10-24T03:52:52.506Z,45260.78
2022-10-24T03:53:54.620Z,50898.78
2022-10-24T03:54:56.707Z,52890.63
2022-10-24T03:56:00.386Z,51893.34
2022-10-24T03:57:02.621Z,49565.19
2022-10-24T03:58:04.750Z,48900.81
2022-10-24T03:59:06.916Z,51224.41
2022-10-24T04:00:09.821Z,46576.00
2022-10-24T04:01:17.331Z,46909.34
2022-10-24T04:02:19.558Z,49567.91
2022-10-24T04:03:21.744Z,52218.50
2022-10-24T04:04:23.891Z,52555.13
2022-10-24T04:05:26.096Z,52886.06
2022-10-24T04:06:30.299Z,55529.28
2022-10-24T04:07:34.744Z,53539.13
2022-10-24T04:08:36.924Z,49230.66
2022-10-24T04:09:39.221Z,49555.50
2022-10-24T04:10:41.338Z,48566.41
2022-10-24T04:11:43.557Z,54530.66
2022-10-24T04:12:45.704Z,50212.06
2022-10-24T04:13:47.883Z,51551.16
2022-10-24T04:14:50.143Z,52211.13
2022-10-24T04:15:52.379Z,53874.31
2022-10-24T04:16:54.510Z,52203.38
2022-10-24T04:17:56.687Z,56531.81
2022-10-24T04:18:58.774Z,57860.19
2022-10-24T04:20:00.993Z,59185.22
2022-10-24T04:21:03.943Z,59847.88
2022-10-24T04:22:06.050Z,62181.91
2022-10-24T04:23:08.211Z,65840.75
2022-10-24T04:24:11.497Z,59854.97
2022-10-24T04:25:13.801Z,62504.53
2022-10-24T04:26:17.415Z,55859.00
2022-10-24T04:27:19.597Z,55839.28
2022-10-24T04:28:21.739Z,56519.38
2022-10-24T04:29:24.016Z,61830.34
2022-10-24T04:30:26.460Z,63503.13
2022-10-24T04:31:28.630Z,63159.59
2022-10-24T04:32:30.742Z,61161.78
2022-10-24T04:33:32.857Z,61158.41
2022-10-24T04:34:36.335Z,62836.56
2022-10-24T04:35:38.507Z,69161.53
2022-10-24T04:36:40.729Z,71815.44
2022-10-24T04:37:42.895Z,72167.03
2022-10-24T04:38:45.037Z,80512.97
2022-10-24T04:39:47.141Z,81166.22
2022-10-24T04:40:52.513Z,76191.47
2022-10-24T04:41:54.702Z,87875.78
2022-10-24T04:42:56.829Z,89216.19
2022-10-24T04:43:58.953Z,92246.78
2022-10-24T04:45:01.074Z,92569.34
2022-10-24T04:46:03.561Z,89885.84
2022-10-24T04:47:05.681Z,96279.44
2022-10-24T04:48:07.805Z,102330.84
2022-10-24T04:49:10.107Z,101980.09
2022-10-24T04:50:12.279Z,101658.88
2022-10-24T04:51:17.403Z,108385.28
2022-10-24T04:52:22.241Z,113795.16
2022-10-24T04:53:24.581Z,116835.19
2022-10-24T04:54:26.764Z,120564.69
2022-10-24T04:55:29.281Z,127348.06
2022-10-24T04:56:31.414Z,129674.69
2022-10-24T04:57:33.562Z,120890.63
2022-10-24T04:58:35.727Z,117148.88
2022-10-24T04:59:38.256Z,120548.13
2022-10-24T05:00:42.732Z,128684.72
2022-10-24T05:01:44.967Z,124250.44
2022-10-24T05:02:47.222Z,127659.50
2022-10-24T05:03:49.428Z,137495.56
2022-10-24T05:04:51.642Z,139530.53
2022-10-24T05:05:53.809Z,140204.56
2022-10-24T05:06:55.987Z,140548.41
2022-10-24T05:07:58.140Z,142243.69
2022-10-24T05:09:00.438Z,141530.91
2022-10-24T05:10:06.594Z,137166.53
2022-10-24T05:11:11.350Z,145646.25
2022-10-24T05:12:13.966Z,149104.03
2022-10-24T05:13:16.261Z,149698.78
2022-10-24T05:14:18.368Z,149172.47
2022-10-24T05:15:20.664Z,148978.06
2022-10-24T05:16:22.831Z,141527.47
2022-10-24T05:17:24.934Z,147960.91
2022-10-24T05:18:27.091Z,145957.19
2022-10-24T05:19:29.262Z,138109.91
2022-10-24T05:20:31.927Z,138810.47
2022-10-24T05:21:34.175Z,139125.84
2022-10-24T05:22:36.788Z,138801.47
2022-10-24T05:23:38.935Z,139457.00
2022-10-24T05:24:41.143Z,131320.06
2022-10-24T05:25:43.246Z,129962.53
2022-10-24T05:26:45.401Z,128600.41
2022-10-24T05:27:47.598Z,133340.00
2022-10-24T05:28:52.414Z,132338.53
2022-10-24T05:29:55.230Z,125899.41
2022-10-24T05:30:57.352Z,126927.63
2022-10-24T05:31:59.487Z,128282.03
2022-10-24T05:33:01.637Z,127233.75
2022-10-24T05:34:03.761Z,126228.16
2022-10-24T05:35:06.453Z,114743.41
2022-10-24T05:36:08.740Z,120817.44
2022-10-24T05:37:10.981Z,126581.41
2022-10-24T05:38:13.079Z,130634.88
2022-10-24T05:39:15.235Z,132641.50
2022-10-24T05:40:17.435Z,131314.72
2022-10-24T05:41:19.594Z,135043.88
2022-10-24T05:42:21.852Z,137767.63
2022-10-24T05:43:23.993Z,145595.34
2022-10-24T05:44:26.188Z,149672.84
2022-10-24T05:45:28.328Z,149657.00
2022-10-24T05:46:30.434Z,149646.06
2022-10-24T05:47:32.624Z,149639.97
2022-10-24T05:48:35.944Z,149046.19
2022-10-24T05:49:38.113Z,149652.13
2022-10-24T05:50:40.264Z,149660.69
2022-10-24T05:51:42.441Z,149669.19
2022-10-24T05:52:47.194Z,149655.78
2022-10-24T05:53:49.572Z,149649.69
2022-10-24T05:54:55.658Z,149688.63
2022-10-24T05:56:08.664Z,149672.84
2022-10-24T05:57:10.835Z,149652.13
2022-10-24T05:58:13.000Z,149658.22
2022-10-24T05:59:15.185Z,149661.91
2022-10-24T06:00:17.999Z,149700.84
2022-10-24T06:01:20.199Z,149689.84
2022-10-24T06:02:22.464Z,149693.53
2022-10-24T06:03:24.773Z,149664.31
2022-10-24T06:04:26.930Z,149635.13
2022-10-24T06:05:29.167Z,149672.84
2022-10-24T06:06:31.288Z,149630.25
2022-10-24T06:07:33.429Z,149604.69
2022-10-24T06:08:37.815Z,149709.34
2022-10-24T06:09:41.544Z,149644.84
2022-10-24T06:10:48.745Z,149739.78
2022-10-24T06:11:50.847Z,149678.91
2022-10-24T06:12:52.971Z,149705.69
2022-10-24T06:13:55.102Z,149727.63
2022-10-24T06:14:58.362Z,149708.13
2022-10-24T06:16:00.468Z,149666.75
2022-10-24T06:17:02.678Z,149675.25
2022-10-24T06:18:04.882Z,149665.53
2022-10-24T06:19:07.082Z,149671.63
2022-10-24T06:20:09.840Z,149667.97
2022-10-24T06:21:13.472Z,149674.03
2022-10-24T06:22:15.578Z,149637.53
2022-10-24T06:23:17.702Z,149678.91
2022-10-24T06:24:19.870Z,149664.31
2022-10-24T06:25:22.400Z,149642.41
2022-10-24T06:26:24.766Z,149639.97
2022-10-24T06:27:27.197Z,149627.81
2022-10-24T06:28:29.346Z,149674.03
2022-10-24T06:29:31.853Z,149620.50
2022-10-24T06:30:35.552Z,149681.34
2022-10-24T06:31:38.290Z,149664.31
2022-10-24T06:32:43.615Z,149692.28
2022-10-24T06:33:46.986Z,149703.25
2022-10-24T06:34:49.145Z,149695.97
2022-10-24T06:35:51.347Z,149708.13
2022-10-24T06:36:54.169Z,149692.28
2022-10-24T06:37:56.281Z,149732.47
2022-10-24T06:38:58.414Z,149706.91
2022-10-24T06:40:00.551Z,149766.56
2022-10-24T06:41:10.865Z,149800.69
2022-10-24T06:42:13.159Z,149783.63
2022-10-24T06:43:19.508Z,149781.19
2022-10-24T06:44:21.664Z,149825.03
2022-10-24T06:45:23.996Z,149838.41
2022-10-24T06:46:26.118Z,149775.06
2022-10-24T06:47:28.260Z,149834.78
2022-10-24T06:48:30.368Z,149861.56
2022-10-24T06:49:33.081Z,149885.88
2022-10-24T06:50:36.729Z,149861.56
2022-10-24T06:51:39.914Z,149871.28
2022-10-24T06:52:42.121Z,149885.88
2022-10-24T06:53:44.402Z,149919.97
2022-10-24T06:54:46.548Z,149878.59
2022-10-24T06:55:48.703Z,149873.72
2022-10-24T06:56:50.825Z,149885.88
2022-10-24T06:57:53.734Z,149945.56
2022-10-24T06:58:55.920Z,149922.41
2022-10-24T06:59:58.041Z,149899.31
2022-10-24T07:01:00.452Z,149946.78
2022-10-24T07:02:05.790Z,149901.72
2022-10-24T07:03:13.736Z,149919.97
2022-10-24T07:04:15.858Z,149934.63
2022-10-24T07:05:18.142Z,149933.41
2022-10-24T07:07:30.534Z,149972.34
2022-10-24T07:08:32.756Z,149965.06
2022-10-24T07:09:34.938Z,149956.56
2022-10-24T07:10:37.025Z,149941.91
2022-10-24T07:11:39.223Z,149921.19
2022-10-24T07:12:43.338Z,149950.44
2022-10-24T07:13:46.232Z,150027.22
2022-10-24T07:14:48.600Z,150093.00
2022-10-24T07:15:54.248Z,150117.34
2022-10-24T07:16:56.453Z,150183.13
2022-10-24T07:17:58.639Z,150301.41
2022-10-24T07:19:00.782Z,150290.44
2022-10-24T07:20:03.070Z,150308.72
2022-10-24T07:21:11.047Z,150356.28
2022-10-24T07:22:13.136Z,150429.44
2022-10-24T07:23:15.506Z,150468.47
2022-10-24T07:24:17.739Z,150403.84
2022-10-24T07:25:19.877Z,150447.72
2022-10-24T07:26:24.547Z,150507.47
2022-10-24T07:27:26.699Z,150475.75
2022-10-24T07:28:28.860Z,150483.13
2022-10-24T07:29:31.174Z,150440.41
2022-10-24T07:30:33.443Z,150397.75
2022-10-24T07:31:36.704Z,150378.19
2022-10-24T07:32:38.806Z,150300.19
2022-10-24T07:33:41.542Z,150245.34
2022-10-24T07:34:43.707Z,150219.78
2022-10-24T07:35:45.849Z,150263.63
2022-10-24T07:36:48.022Z,150322.13
2022-10-24T07:37:50.568Z,150424.59
2022-10-24T07:38:56.093Z,150490.41
2022-10-24T07:39:58.223Z,150631.94
2022-10-24T07:41:06.505Z,150624.63
2022-10-24T07:42:09.079Z,150713.69
2022-10-24T07:43:11.288Z,150817.44
2022-10-24T07:44:13.474Z,150835.72
2022-10-24T07:45:15.696Z,150872.31
2022-10-24T07:46:18.842Z,151039.59
2022-10-24T07:47:20.984Z,151034.72
2022-10-24T07:48:23.234Z,150937.06
2022-10-24T07:49:26.466Z,151094.59
2022-10-24T07:50:31.239Z,151137.31
2022-10-24T07:51:33.323Z,151105.56
2022-10-24T07:52:35.410Z,151097.03
2022-10-24T07:53:37.878Z,151111.72
2022-10-24T07:54:40.067Z,151083.56
2022-10-24T07:55:43.703Z,151159.31
2022-10-24T07:56:45.809Z,151159.31
2022-10-24T07:57:48.169Z,151166.63
2022-10-24T07:58:50.576Z,151115.38
2022-10-24T07:59:52.687Z,151117.81
2022-10-24T08:00:55.237Z,151106.84
2022-10-24T08:01:57.330Z,151276.63
2022-10-24T08:02:59.548Z,151351.13
2022-10-24T08:04:01.636Z,151376.81
2022-10-24T08:05:04.009Z,151342.59
2022-10-24T08:06:12.626Z,151400.00
2022-10-24T08:08:34.918Z,151353.59
2022-10-24T08:09:40.088Z,151299.81
2022-10-24T08:10:42.169Z,151204.47
2022-10-24T08:11:44.328Z,151271.75
2022-10-24T08:12:46.850Z,151269.28
2022-10-24T08:13:50.386Z,151279.06
2022-10-24T08:14:53.372Z,151040.84
2022-10-24T08:15:56.374Z,150951.72
2022-10-24T08:16:58.450Z,151021.31
2022-10-24T08:18:00.587Z,150989.56
2022-10-24T08:19:02.707Z,150908.97
2022-10-24T08:20:06.580Z,151073.81
2022-10-24T08:21:13.156Z,151138.53
2022-10-24T08:22:16.827Z,151109.28
2022-10-24T08:23:23.143Z,151098.25
2022-10-24T08:24:26.979Z,151159.31
2022-10-24T08:25:29.039Z,151131.22
2022-10-24T08:26:31.163Z,151127.56
2022-10-24T08:27:33.380Z,151051.81
2022-10-24T08:28:36.061Z,151020.09
2022-10-24T08:29:38.530Z,151033.50
2022-10-24T08:30:40.605Z,151034.72
2022-10-24T08:31:43.627Z,151125.13
2022-10-24T08:32:46.178Z,151222.81
2022-10-24T08:33:51.626Z,151199.59
2022-10-24T08:34:53.782Z,151183.75
2022-10-24T08:35:59.866Z,151381.69
2022-10-24T08:37:02.004Z,151331.56
2022-10-24T08:38:04.052Z,151257.06
2022-10-24T08:39:06.156Z,151081.13
2022-10-24T08:40:13.002Z,151026.19
2022-10-24T08:41:35.986Z,151142.25
2022-10-24T08:42:38.202Z,151203.25
2022-10-24T08:43:40.324Z,151334.00
2022-10-24T08:44:47.292Z,151379.25
2022-10-24T08:45:58.201Z,151270.50
2022-10-24T08:47:11.988Z,151265.59
2022-10-24T08:48:19.531Z,151130.00
2022-10-24T08:49:28.766Z,151275.41
2022-10-24T08:50:34.194Z,151230.16
2022-10-24T08:51:46.076Z,151127.56
2022-10-24T08:53:01.743Z,151044.50
2022-10-24T08:54:06.581Z,150966.34
2022-10-24T08:55:43.998Z,151145.91
2022-10-24T08:56:48.448Z,151115.38
2022-10-24T08:57:57.580Z,151318.16
2022-10-24T08:59:03.363Z,151296.16
2022-10-24T09:00:21.524Z,151337.72
2022-10-24T09:01:39.620Z,151434.25
2022-10-24T09:02:44.450Z,151464.81
2022-10-24T09:03:55.980Z,151423.28
2022-10-24T09:05:03.038Z,151393.88
2022-10-24T09:06:13.588Z,151369.50
2022-10-24T09:07:20.967Z,151467.25
2022-10-24T09:08:33.539Z,151415.94
2022-10-24T09:09:42.907Z,151381.69
2022-10-24T09:10:57.786Z,151404.91
2022-10-24T09:12:01.248Z,151396.31
2022-10-24T09:13:12.935Z,151395.09
2022-10-24T09:14:17.284Z,151287.63
2022-10-24T09:15:30.196Z,151144.69
2022-10-24T09:16:32.420Z,151104.34
2022-10-24T09:17:35.514Z,151116.59
2022-10-24T09:18:43.597Z,151222.81
2022-10-24T09:20:25.759Z,151257.06
2022-10-24T09:21:28.453Z,151134.88
2022-10-24T09:22:35.181Z,151087.28
2022-10-24T09:23:38.463Z,151013.97
2022-10-24T09:24:54.957Z,150937.06
2022-10-24T09:25:58.405Z,151020.09
2022-10-24T09:27:04.511Z,150946.84
2022-10-24T09:28:06.989Z,150806.41
2022-10-24T09:29:09.286Z,150725.88
2022-10-24T09:30:21.396Z,150850.38
2022-10-24T09:31:26.082Z,150778.41
2022-10-24T09:32:32.346Z,150817.44
2022-10-24T09:33:35.813Z,150791.78
2022-10-24T09:34:38.023Z,150785.72
2022-10-24T09:35:40.260Z,150926.09
2022-10-24T09:36:42.667Z,150636.78
2022-10-24T09:37:58.364Z,150934.63
2022-10-24T09:39:25.207Z,150861.34
2022-10-24T09:40:31.730Z,150695.38
2022-10-24T09:41:34.768Z,150727.09
2022-10-24T09:42:38.539Z,150839.38
2022-10-24T09:43:43.685Z,150832.06
2022-10-24T09:44:46.932Z,150805.19
2022-10-24T09:46:01.069Z,150815.00
2022-10-24T09:47:06.533Z,150762.50
2022-10-24T09:48:17.365Z,150667.28
2022-10-24T09:49:22.597Z,150677.03
2022-10-24T09:50:25.408Z,150602.66
2022-10-24T09:51:27.587Z,150453.84
2022-10-24T09:52:29.867Z,150405.06
2022-10-24T09:53:35.520Z,150473.34
2022-10-24T09:54:37.771Z,150383.16
2022-10-24T09:55:45.626Z,150470.88
2022-10-24T09:57:11.190Z,150539.19
2022-10-24T09:58:19.585Z,150458.72
2022-10-24T09:59:42.126Z,150451.41
2022-10-24T10:00:50.790Z,150441.63
2022-10-24T10:01:53.279Z,150386.78
2022-10-24T10:03:03.797Z,150417.28
2022-10-24T10:04:09.484Z,150208.78
2022-10-24T10:05:18.855Z,150390.44
2022-10-24T10:06:21.170Z,150279.44
2022-10-24T10:07:28.310Z,150414.78
2022-10-24T10:08:34.289Z,150378.19
2022-10-24T10:09:42.330Z,150336.75
2022-10-24T10:10:59.562Z,150370.88
2022-10-24T10:12:03.189Z,150263.63
2022-10-24T10:13:09.640Z,150390.44
2022-10-24T10:14:27.872Z,150392.88
2022-10-24T10:15:32.752Z,150391.66
2022-10-24T10:16:39.011Z,150383.16
2022-10-24T10:17:50.400Z,150424.59
2022-10-24T10:19:21.075Z,150407.50
2022-10-24T10:20:42.079Z,150366.00
2022-10-24T10:21:56.335Z,150248.97
2022-10-24T10:23:22.553Z,150275.81
2022-10-24T10:24:27.988Z,150227.06
2022-10-24T10:25:32.049Z,150214.84
2022-10-24T10:26:45.399Z,150278.22
2022-10-24T10:27:51.051Z,150327.00
2022-10-24T10:28:55.078Z,150280.66
2022-10-24T10:30:12.222Z,150328.22
2022-10-24T10:31:17.314Z,150285.59
2022-10-24T10:32:25.925Z,150346.50
2022-10-24T10:33:41.881Z,150270.94
2022-10-24T10:34:55.042Z,150291.66
2022-10-24T10:36:15.893Z,150339.19
2022-10-24T10:37:33.631Z,150322.13
2022-10-24T10:38:56.275Z,150406.28
2022-10-24T10:40:01.243Z,150253.91
2022-10-24T10:41:18.593Z,150384.34
2022-10-24T10:42:23.694Z,150351.41
2022-10-24T10:43:43.505Z,150217.28
2022-10-24T10:45:15.866Z,150277.03
2022-10-24T10:46:34.890Z,150320.94
2022-10-24T10:47:47.346Z,150407.50
2022-10-24T10:48:52.133Z,150246.53
2022-10-24T10:49:57.725Z,150313.56
2022-10-24T10:51:28.543Z,150373.31
2022-10-24T10:52:37.834Z,150317.28
2022-10-24T10:54:01.286Z,150184.34
2022-10-24T10:55:21.657Z,150319.72
2022-10-24T10:56:41.948Z,150314.78
2022-10-24T10:57:54.195Z,150107.59
2022-10-24T10:59:05.373Z,150141.72
2022-10-24T11:00:13.250Z,150322.13
2022-10-24T11:01:33.492Z,150231.94
2022-10-24T11:02:54.327Z,150323.34
2022-10-24T11:04:09.034Z,150420.94
2022-10-24T11:05:29.484Z,150376.97
2022-10-24T11:06:38.975Z,150356.28
2022-10-24T11:07:48.315Z,150327.00
2022-10-24T11:09:17.151Z,150368.44
2022-10-24T11:10:23.206Z,150341.63
2022-10-24T11:11:31.879Z,150373.31
2022-10-24T11:12:40.894Z,150366.00
2022-10-24T11:13:54.503Z,150367.22
2022-10-24T11:15:06.660Z,150306.28
2022-10-24T11:16:17.712Z,150250.19
2022-10-24T11:17:27.818Z,150222.22
2022-10-24T11:18:35.585Z,150181.91
2022-10-24T11:19:44.660Z,150300.19
2022-10-24T11:20:55.864Z,150297.75
2022-10-24T11:22:03.059Z,150280.66
2022-10-24T11:23:31.891Z,150283.09
2022-10-24T11:24:45.251Z,150324.56
2022-10-24T11:26:07.860Z,150241.69
2022-10-24T11:27:17.618Z,150263.63
2022-10-24T11:28:44.327Z,150339.19
2022-10-24T11:29:57.132Z,150380.66
2022-10-24T11:31:11.442Z,150384.34
2022-10-24T11:32:20.544Z,150446.50
2022-10-24T11:33:27.594Z,150348.91
2022-10-24T11:34:46.879Z,150423.38
2022-10-24T11:36:06.449Z,150458.72
2022-10-24T11:37:20.853Z,150533.09
2022-10-24T11:38:25.783Z,150539.19
2022-10-24T11:39:33.223Z,150551.41
2022-10-24T11:40:35.532Z,150527.00
2022-10-24T11:41:48.101Z,150666.06
2022-10-24T11:43:01.897Z,150824.75
2022-10-24T11:44:18.951Z,150993.22
2022-10-24T11:45:24.793Z,151144.69
2022-10-24T11:46:34.427Z,151100.69
2022-10-24T11:47:54.997Z,151147.13
2022-10-24T11:49:09.929Z,151038.38
2022-10-24T11:50:41.221Z,150968.78
2022-10-24T11:51:59.571Z,151064.03
2022-10-24T11:53:13.480Z,151004.19
2022-10-24T11:54:21.398Z,150841.81
2022-10-24T11:55:39.018Z,150915.06
2022-10-24T11:56:47.107Z,150839.38
2022-10-24T11:57:54.288Z,150817.44
2022-10-24T11:59:06.223Z,150681.97
2022-10-24T12:00:18.342Z,150661.19
2022-10-24T12:01:51.146Z,150570.94
2022-10-24T12:03:08.330Z,150491.63
2022-10-24T12:04:47.227Z,150500.16
2022-10-24T12:06:01.835Z,150358.72
2022-10-24T12:07:23.938Z,150480.63
2022-10-24T12:08:31.830Z,150464.81
2022-10-24T12:09:55.723Z,150425.81
2022-10-24T12:11:12.720Z,150358.72
2022-10-24T12:12:31.901Z,150405.06
2022-10-24T12:13:59.638Z,150439.19
2022-10-24T12:15:08.291Z,150439.19
2022-10-24T12:16:25.837Z,150392.88
2022-10-24T12:17:46.936Z,150475.75
2022-10-24T12:18:56.233Z,150275.81
2022-10-24T12:20:01.477Z,150317.28
2022-10-24T12:21:07.221Z,150483.13
2022-10-24T12:22:17.637Z,150797.88
2022-10-24T12:23:23.530Z,150941.97
2022-10-24T12:24:38.746Z,150970.00
2022-10-24T12:25:45.666Z,151097.03
2022-10-24T12:27:02.752Z,151337.72
2022-10-24T12:28:12.207Z,151330.34
2022-10-24T12:29:24.138Z,151152.00
2022-10-24T12:30:28.615Z,151031.06
2022-10-24T12:31:37.366Z,151131.22
2022-10-24T12:32:48.012Z,151046.94
2022-10-24T12:34:10.210Z,151023.75
2022-10-24T12:35:31.333Z,151081.13
2022-10-24T12:37:12.090Z,151010.34
2022-10-24T12:38:39.717Z,151183.75
2022-10-24T12:39:47.904Z,151189.84
2022-10-24T12:41:09.295Z,151303.47
2022-10-24T12:42:24.680Z,151254.63
2022-10-24T12:43:33.186Z,151144.69
2022-10-24T12:44:37.411Z,150951.72
2022-10-24T12:45:39.797Z,150971.22
2022-10-24T12:46:41.877Z,150856.47
2022-10-24T12:48:00.790Z,150688.06
2022-10-24T12:49:02.846Z,150647.81
2022-10-24T12:50:23.253Z,150564.84
2022-10-24T12:51:32.869Z,150546.47
2022-10-24T12:52:38.027Z,150558.72